createdAt,value
2023-04-05T00:01:35.785Z,102036.00
2023-04-05T00:04:04.488Z,102031.16
2023-04-05T00:06:34.501Z,102026.88
2023-04-05T00:09:04.355Z,102026.66
2023-04-05T00:11:33.683Z,102021.75
2023-04-05T00:14:03.596Z,102019.19
2023-04-05T00:16:34.165Z,102018.16
2023-04-05T00:19:02.695Z,102016.81
2023-04-05T00:21:31.604Z,102018.94
2023-04-05T00:24:00.550Z,102020.84
2023-04-05T00:26:29.173Z,102020.19
2023-04-05T00:28:57.725Z,102024.41
2023-04-05T00:31:26.290Z,102019.25
2023-04-05T00:33:56.210Z,102015.06
2023-04-05T00:36:25.435Z,102012.53
2023-04-05T00:38:53.957Z,102015.72
2023-04-05T00:41:22.468Z,102011.16
2023-04-05T00:43:52.111Z,102008.22
2023-04-05T00:46:21.356Z,102003.50
2023-04-05T00:48:50.052Z,102007.31
2023-04-05T00:51:20.808Z,102007.50
2023-04-05T00:53:52.815Z,102005.81
2023-04-05T00:56:22.938Z,102001.53
2023-04-05T00:58:53.292Z,102007.44
2023-04-05T01:01:23.506Z,102010.03
2023-04-05T01:03:54.840Z,102005.50
2023-04-05T01:06:38.187Z,102007.19
2023-04-05T01:09:13.350Z,101995.50
2023-04-05T01:11:43.678Z,101993.03
2023-04-05T01:14:12.133Z,101995.59
2023-04-05T01:16:40.682Z,101988.63
2023-04-05T01:19:10.083Z,101992.69
2023-04-05T01:22:18.291Z,101994.34
2023-04-05T01:25:19.457Z,101989.41
2023-04-05T01:28:14.107Z,101987.72
2023-04-05T01:30:47.649Z,101989.63
2023-04-05T01:33:25.836Z,101982.38
2023-04-05T01:36:00.868Z,101986.19
2023-04-05T01:38:30.261Z,101981.09
2023-04-05T01:40:58.878Z,101982.75
2023-04-05T01:43:27.473Z,101976.16
2023-04-05T01:45:57.356Z,101975.13
2023-04-05T01:48:25.862Z,101974.88
2023-04-05T01:50:54.328Z,101982.41
2023-04-05T01:53:22.824Z,101963.38
2023-04-05T01:55:51.286Z,101969.94
2023-04-05T01:58:19.747Z,101965.69
2023-04-05T02:00:48.240Z,101962.94
2023-04-05T02:03:18.170Z,101965.19
2023-04-05T02:05:46.694Z,101953.31
2023-04-05T02:08:16.006Z,101955.44
2023-04-05T02:10:44.707Z,101956.09
2023-04-05T02:13:13.714Z,101953.53
2023-04-05T02:15:42.216Z,101966.84
2023-04-05T02:18:11.390Z,101975.97
2023-04-05T02:20:41.542Z,101954.09
2023-04-05T02:23:10.381Z,101960.41
2023-04-05T02:25:38.840Z,101972.28
2023-04-05T02:28:07.665Z,101964.41
2023-04-05T02:30:36.227Z,101962.50
2023-04-05T02:33:04.963Z,101954.63
2023-04-05T02:35:33.521Z,101957.22
2023-04-05T02:38:04.573Z,101957.97
2023-04-05T02:40:34.116Z,101959.22
2023-04-05T02:43:03.445Z,101956.25
2023-04-05T02:45:32.090Z,101958.38
2023-04-05T02:48:00.597Z,101955.53
2023-04-05T02:50:29.109Z,101955.34
2023-04-05T02:52:57.580Z,101954.69
2023-04-05T02:55:29.482Z,101952.78
2023-04-05T02:58:01.720Z,101954.03
2023-04-05T03:00:30.306Z,101960.59
2023-04-05T03:02:58.831Z,101956.53
2023-04-05T03:05:27.548Z,101956.06
2023-04-05T03:07:56.014Z,101957.53
2023-04-05T03:10:26.322Z,101955.38
2023-04-05T03:12:54.768Z,101958.53
2023-04-05T03:15:23.277Z,101951.56
2023-04-05T03:17:51.767Z,101948.56
2023-04-05T03:20:20.381Z,101945.34
2023-04-05T03:22:48.826Z,101944.47
2023-04-05T03:25:17.600Z,101946.84
2023-04-05T03:27:47.446Z,101949.97
2023-04-05T03:30:16.139Z,101949.34
2023-04-05T03:32:44.645Z,101943.38
2023-04-05T03:35:13.278Z,101943.75
2023-04-05T03:37:41.744Z,101942.91
2023-04-05T03:40:11.266Z,101946.50
2023-04-05T03:42:39.751Z,101936.03
2023-04-05T03:45:10.526Z,101940.53
2023-04-05T03:47:39.015Z,101928.84
2023-04-05T03:50:09.032Z,101930.88
2023-04-05T03:52:37.466Z,101931.72
2023-04-05T03:55:06.839Z,101929.44
2023-04-05T03:57:35.714Z,101932.66
2023-04-05T04:00:14.120Z,101935.50
2023-04-05T04:02:46.143Z,101940.53
2023-04-05T04:05:15.812Z,101936.06
2023-04-05T04:07:44.862Z,101929.91
2023-04-05T04:10:17.650Z,101930.47
2023-04-05T04:12:46.626Z,101926.31
2023-04-05T04:15:15.143Z,101931.34
2023-04-05T04:17:45.078Z,101938.06
2023-04-05T04:20:14.819Z,101938.94
2023-04-05T04:22:43.406Z,101939.59
2023-04-05T04:25:14.662Z,101926.22
2023-04-05T04:27:46.663Z,101937.41
2023-04-05T04:30:16.420Z,101931.06
2023-04-05T04:32:51.872Z,101928.69
2023-04-05T04:35:24.888Z,101928.50
2023-04-05T04:37:59.074Z,101934.38
2023-04-05T04:40:32.447Z,101934.56
2023-04-05T04:43:01.722Z,101929.94
2023-04-05T04:45:34.747Z,101929.25
2023-04-05T04:48:05.872Z,101930.50
2023-04-05T04:50:34.768Z,101931.06
2023-04-05T04:53:03.670Z,101937.63
2023-04-05T04:55:33.602Z,101938.66
2023-04-05T04:58:02.156Z,101938.38
2023-04-05T05:00:30.997Z,101941.97
2023-04-05T05:02:59.496Z,101936.28
2023-04-05T05:05:29.356Z,101938.56
2023-04-05T05:07:57.864Z,101932.00
2023-04-05T05:10:26.427Z,101932.88
2023-04-05T05:12:54.924Z,101939.97
2023-04-05T05:15:23.573Z,101932.22
2023-04-05T05:17:53.952Z,101932.38
2023-04-05T05:20:23.137Z,101924.25
2023-04-05T05:22:52.966Z,101927.28
2023-04-05T05:25:22.230Z,101929.16
2023-04-05T05:27:51.408Z,101924.91
2023-04-05T05:30:20.770Z,101930.41
2023-04-05T05:32:49.321Z,101930.41
2023-04-05T05:35:18.077Z,101932.06
2023-04-05T05:37:46.660Z,101927.38
2023-04-05T05:40:16.521Z,101925.22
2023-04-05T05:42:45.040Z,101930.44
2023-04-05T05:45:13.610Z,101929.09
2023-04-05T05:47:42.639Z,101913.53
2023-04-05T05:50:11.931Z,101926.34
2023-04-05T05:52:40.450Z,101927.03
2023-04-05T05:55:09.792Z,101939.63
2023-04-05T05:57:39.633Z,101935.84
2023-04-05T06:00:10.636Z,101937.78
2023-04-05T06:02:39.319Z,101937.63
2023-04-05T06:05:08.971Z,101931.47
2023-04-05T06:07:38.420Z,101937.63
2023-04-05T06:10:08.340Z,101945.72
2023-04-05T06:12:38.469Z,101934.63
2023-04-05T06:15:08.079Z,101933.78
2023-04-05T06:17:41.949Z,101935.22
2023-04-05T06:20:12.222Z,101939.69
2023-04-05T06:22:41.853Z,101933.00
2023-04-05T06:25:12.887Z,101942.94
2023-04-05T06:27:42.856Z,101937.56
2023-04-05T06:30:12.327Z,101934.75
2023-04-05T06:32:40.856Z,101935.13
2023-04-05T06:35:10.279Z,101938.75
2023-04-05T06:37:38.793Z,101936.16
2023-04-05T06:40:08.738Z,101937.06
2023-04-05T06:42:37.448Z,101945.91
2023-04-05T06:45:08.368Z,101944.28
2023-04-05T06:47:37.306Z,101940.94
2023-04-05T06:50:06.723Z,101938.28
2023-04-05T06:52:35.808Z,101936.25
2023-04-05T06:55:05.032Z,101939.84
2023-04-05T06:57:33.489Z,101927.63
2023-04-05T07:00:02.194Z,101930.94
2023-04-05T07:02:34.035Z,101929.00
2023-04-05T07:05:06.053Z,101925.88
2023-04-05T07:07:34.741Z,101928.78
2023-04-05T07:10:03.569Z,101932.00
2023-04-05T07:12:33.114Z,101915.75
2023-04-05T07:15:02.414Z,101926.81
2023-04-05T07:17:32.559Z,101920.84
2023-04-05T07:20:01.197Z,101918.44
2023-04-05T07:22:29.705Z,101927.06
2023-04-05T07:24:58.287Z,101923.13
2023-04-05T07:27:27.070Z,101920.56
2023-04-05T07:29:55.572Z,101919.06
2023-04-05T07:32:24.189Z,101912.38
2023-04-05T07:34:54.453Z,101913.63
2023-04-05T07:37:22.910Z,101919.22
2023-04-05T07:39:51.397Z,101917.63
2023-04-05T07:42:21.558Z,101921.31
2023-04-05T07:44:50.086Z,101915.06
2023-04-05T07:47:18.601Z,101915.00
2023-04-05T07:49:47.122Z,101914.88
2023-04-05T07:52:17.095Z,101917.16
2023-04-05T07:54:45.949Z,101922.06
2023-04-05T07:57:18.572Z,101924.28
2023-04-05T07:59:48.017Z,101923.19
2023-04-05T08:02:16.511Z,101923.13
2023-04-05T08:04:45.015Z,101922.66
2023-04-05T08:07:13.961Z,101925.47
2023-04-05T08:09:43.983Z,101926.34
2023-04-05T08:12:12.477Z,101927.56
2023-04-05T08:14:40.965Z,101924.97
2023-04-05T08:17:09.400Z,101927.00
2023-04-05T08:19:37.872Z,101917.56
2023-04-05T08:22:06.347Z,101919.22
2023-04-05T08:24:35.288Z,101920.41
2023-04-05T08:27:05.191Z,101917.47
2023-04-05T08:29:33.668Z,101919.50
2023-04-05T08:32:02.141Z,101914.88
2023-04-05T08:34:30.622Z,101921.72
2023-04-05T08:37:00.943Z,101920.50
2023-04-05T08:39:29.488Z,101919.69
2023-04-05T08:42:08.834Z,101919.69
2023-04-05T08:44:39.058Z,101918.66
2023-04-05T08:47:10.280Z,101921.34
2023-04-05T08:49:38.758Z,101916.13
2023-04-05T08:52:08.010Z,101915.41
2023-04-05T08:54:36.587Z,101910.59
2023-04-05T08:57:08.655Z,101916.25
2023-04-05T08:59:40.840Z,101911.09
2023-04-05T09:02:16.265Z,101908.78
2023-04-05T09:04:46.429Z,101912.94
2023-04-05T09:07:17.584Z,101916.66
2023-04-05T09:09:50.806Z,101906.13
2023-04-05T09:12:22.921Z,101911.44
2023-04-05T09:14:51.620Z,101902.56
2023-04-05T09:17:20.723Z,101905.22
2023-04-05T09:19:50.227Z,101902.56
2023-04-05T09:22:19.496Z,101892.28
2023-04-05T09:24:48.465Z,101897.22
2023-04-05T09:27:19.887Z,101904.00
2023-04-05T09:29:49.690Z,101884.22
2023-04-05T09:32:20.577Z,101888.34
2023-04-05T09:34:49.946Z,101891.41
2023-04-05T09:37:20.680Z,101886.16
2023-04-05T09:39:51.853Z,101894.25
2023-04-05T09:42:24.067Z,101886.00
2023-04-05T09:44:54.466Z,101886.16
2023-04-05T09:47:25.852Z,101884.50
2023-04-05T09:49:54.489Z,101888.66
2023-04-05T09:52:24.864Z,101890.84
2023-04-05T09:54:56.096Z,101881.41
2023-04-05T09:57:27.562Z,101892.00
2023-04-05T09:59:56.641Z,101889.13
2023-04-05T10:02:26.053Z,101886.13
2023-04-05T10:04:54.586Z,101885.38
2023-04-05T10:07:23.363Z,101882.44
2023-04-05T10:09:51.862Z,101881.53
2023-04-05T10:12:27.889Z,101882.41
2023-04-05T10:14:57.102Z,101877.66
2023-04-05T10:17:29.526Z,101873.66
2023-04-05T10:20:10.479Z,101868.03
2023-04-05T10:22:42.451Z,101864.00
2023-04-05T10:25:25.238Z,101862.44
2023-04-05T10:27:59.055Z,101853.72
2023-04-05T10:30:33.348Z,101856.41
2023-04-05T10:33:11.509Z,101859.53
2023-04-05T10:35:52.801Z,101848.53
2023-04-05T10:38:25.576Z,101850.84
2023-04-05T10:40:58.379Z,101849.88
2023-04-05T10:43:28.648Z,101848.38
2023-04-05T10:45:58.843Z,101846.31
2023-04-05T10:48:37.889Z,101847.81
2023-04-05T10:51:07.039Z,101847.75
2023-04-05T10:53:38.452Z,101843.81
2023-04-05T10:56:08.309Z,101840.78
2023-04-05T10:58:40.569Z,101838.63
2023-04-05T11:01:10.560Z,101830.16
2023-04-05T11:03:49.949Z,101829.41
2023-04-05T11:06:23.384Z,101837.94
2023-04-05T11:08:55.310Z,101834.47
2023-04-05T11:11:27.660Z,101825.97
2023-04-05T11:13:58.505Z,101819.41
2023-04-05T11:16:41.162Z,101823.03
2023-04-05T11:19:10.632Z,101817.66
2023-04-05T11:21:39.257Z,101812.53
2023-04-05T11:24:09.694Z,101815.81
2023-04-05T11:26:57.867Z,101802.78
2023-04-05T11:29:54.391Z,101812.81
2023-04-05T11:32:23.437Z,101811.00
2023-04-05T11:35:02.454Z,101810.72
2023-04-05T11:37:56.442Z,101802.41
2023-04-05T11:40:29.833Z,101811.09
2023-04-05T11:43:06.027Z,101813.19
2023-04-05T11:45:37.514Z,101803.81
2023-04-05T11:48:10.743Z,101805.91
2023-04-05T11:50:41.822Z,101802.19
2023-04-05T11:53:12.576Z,101798.88
2023-04-05T11:55:42.550Z,101791.25
2023-04-05T11:58:19.107Z,101798.69
2023-04-05T12:00:58.549Z,101787.31
2023-04-05T12:03:29.084Z,101786.63
2023-04-05T12:05:59.732Z,101785.28
2023-04-05T12:08:41.188Z,101777.00
2023-04-05T12:11:11.612Z,101781.31
2023-04-05T12:13:40.791Z,101769.75
2023-04-05T12:16:11.228Z,101763.44
2023-04-05T12:18:40.046Z,101767.25
2023-04-05T12:21:10.417Z,101760.84
2023-04-05T12:23:39.174Z,101765.19
2023-04-05T12:26:09.543Z,101756.00
2023-04-05T12:28:54.073Z,101755.91
2023-04-05T12:31:39.835Z,101755.25
2023-04-05T12:34:09.628Z,101757.78
2023-04-05T12:36:38.976Z,101765.47
2023-04-05T12:39:08.844Z,101762.03
2023-04-05T12:41:38.220Z,101756.13
2023-04-05T12:44:16.207Z,101748.66
2023-04-05T12:46:47.321Z,101742.06
2023-04-05T12:49:18.763Z,101729.50
2023-04-05T12:51:48.922Z,101733.50
2023-04-05T12:54:23.160Z,101730.81
2023-04-05T12:56:52.961Z,101729.19
2023-04-05T12:59:21.646Z,101725.25
2023-04-05T13:01:52.224Z,101720.94
2023-04-05T13:04:23.173Z,101716.28
2023-04-05T13:06:51.979Z,101713.81
2023-04-05T13:09:20.472Z,101709.34
2023-04-05T13:11:48.960Z,101720.28
2023-04-05T13:14:18.001Z,101709.19
2023-04-05T13:16:46.494Z,101704.84
2023-04-05T13:19:16.498Z,101693.31
2023-04-05T13:21:44.990Z,101697.22
2023-04-05T13:24:13.516Z,101691.78
2023-04-05T13:26:42.014Z,101688.25
2023-04-05T13:29:10.631Z,101693.22
2023-04-05T13:31:40.902Z,101692.31
2023-04-05T13:34:09.711Z,101681.34
2023-04-05T13:36:39.559Z,101683.28
2023-04-05T13:39:08.071Z,101685.63
2023-04-05T13:41:36.594Z,101678.06
2023-04-05T13:44:06.576Z,101680.09
2023-04-05T13:46:35.554Z,101669.38
2023-04-05T13:49:04.332Z,101662.53
2023-04-05T13:51:34.408Z,101668.41
2023-04-05T13:54:04.444Z,101661.44
2023-04-05T13:56:32.900Z,101660.66
2023-04-05T13:59:01.455Z,101656.97
2023-04-05T14:01:30.120Z,101649.78
2023-04-05T14:03:58.675Z,101653.69
2023-04-05T14:06:27.216Z,101651.72
2023-04-05T14:08:56.021Z,101644.63
2023-04-05T14:11:25.961Z,101638.94
2023-04-05T14:13:54.493Z,101649.63
2023-04-05T14:16:23.101Z,101642.50
2023-04-05T14:18:51.619Z,101639.78
2023-04-05T14:21:20.143Z,101627.94
2023-04-05T14:23:50.484Z,101631.84
2023-04-05T14:26:19.014Z,101625.78
2023-04-05T14:28:48.843Z,101635.09
2023-04-05T14:31:17.779Z,101623.28
2023-04-05T14:33:46.341Z,101623.84
2023-04-05T14:36:14.835Z,101620.00
2023-04-05T14:38:43.386Z,101614.66
2023-04-05T14:41:12.173Z,101606.81
2023-04-05T14:43:40.907Z,101606.81
2023-04-05T14:46:10.822Z,101604.94
2023-04-05T14:48:39.351Z,101602.09
2023-04-05T14:51:07.947Z,101602.97
2023-04-05T14:53:36.526Z,101605.66
2023-04-05T14:56:05.224Z,101602.34
2023-04-05T14:58:34.370Z,101598.59
2023-04-05T15:01:03.019Z,101597.38
2023-04-05T15:03:33.358Z,101598.94
2023-04-05T15:06:02.105Z,101599.38
2023-04-05T15:08:30.821Z,101602.63
2023-04-05T15:10:59.589Z,101603.34
2023-04-05T15:13:28.133Z,101596.78
2023-04-05T15:15:56.637Z,101586.81
2023-04-05T15:18:25.101Z,101595.78
2023-04-05T15:20:55.153Z,101581.84
2023-04-05T15:23:23.652Z,101579.31
2023-04-05T15:25:52.186Z,101577.94
2023-04-05T15:28:20.673Z,101587.13
2023-04-05T15:30:51.239Z,101577.19
2023-04-05T15:33:19.796Z,101568.69
2023-04-05T15:35:48.396Z,101571.75
2023-04-05T15:38:18.236Z,101580.38
2023-04-05T15:40:49.655Z,101572.53
2023-04-05T15:43:18.165Z,101568.50
2023-04-05T15:45:46.724Z,101574.13
2023-04-05T15:48:15.406Z,101567.75
2023-04-05T15:50:44.321Z,101559.94
2023-04-05T15:53:13.049Z,101564.13
2023-04-05T15:55:42.898Z,101556.75
2023-04-05T15:58:11.389Z,101555.84
2023-04-05T16:00:41.458Z,101554.84
2023-04-05T16:03:10.112Z,101555.97
2023-04-05T16:05:38.753Z,101556.22
2023-04-05T16:08:07.674Z,101551.22
2023-04-05T16:10:37.147Z,101547.94
2023-04-05T16:13:07.032Z,101541.69
2023-04-05T16:15:35.569Z,101540.31
2023-04-05T16:18:04.173Z,101546.75
2023-04-05T16:20:32.776Z,101541.78
2023-04-05T16:23:01.310Z,101548.75
2023-04-05T16:25:30.046Z,101536.69
2023-04-05T16:27:58.558Z,101537.66
2023-04-05T16:30:28.485Z,101548.00
2023-04-05T16:32:57.504Z,101547.03
2023-04-05T16:35:26.300Z,101542.47
2023-04-05T16:37:54.794Z,101536.75
2023-04-05T16:40:23.311Z,101542.16
2023-04-05T16:42:51.880Z,101540.75
2023-04-05T16:45:20.589Z,101550.75
2023-04-05T16:47:50.562Z,101540.94
2023-04-05T16:50:19.209Z,101548.81
2023-04-05T16:52:47.727Z,101541.03
2023-04-05T16:55:16.298Z,101544.75
2023-04-05T16:57:44.791Z,101547.59
2023-04-05T17:00:14.422Z,101549.91
2023-04-05T17:02:43.008Z,101549.25
2023-04-05T17:05:13.059Z,101551.78
2023-04-05T17:07:42.296Z,101550.81
2023-04-05T17:10:11.312Z,101549.50
2023-04-05T17:12:42.056Z,101537.72
2023-04-05T17:15:11.600Z,101539.78
2023-04-05T17:17:40.782Z,101542.31
2023-04-05T17:20:10.476Z,101539.50
2023-04-05T17:22:41.405Z,101544.31
2023-04-05T17:25:10.825Z,101542.47
2023-04-05T17:27:39.355Z,101540.84
2023-04-05T17:30:09.216Z,101544.13
2023-04-05T17:32:37.831Z,101539.69
2023-04-05T17:35:07.124Z,101544.94
2023-04-05T17:37:35.803Z,101545.84
2023-04-05T17:40:07.162Z,101541.81
2023-04-05T17:42:36.063Z,101549.63
2023-04-05T17:45:04.779Z,101546.34
2023-04-05T17:47:33.337Z,101543.63
2023-04-05T17:50:01.903Z,101548.19
2023-04-05T17:52:31.338Z,101545.88
2023-04-05T17:54:59.893Z,101550.59
2023-04-05T17:57:29.780Z,101550.78
2023-04-05T17:59:59.257Z,101544.28
2023-04-05T18:02:28.496Z,101550.22
2023-04-05T18:04:57.238Z,101551.44
2023-04-05T18:07:27.205Z,101547.72
2023-04-05T18:09:55.918Z,101541.72
2023-04-05T18:12:24.442Z,101549.31
2023-04-05T18:14:54.307Z,101550.78
2023-04-05T18:17:22.872Z,101552.09
2023-04-05T18:19:51.456Z,101551.25
2023-04-05T18:22:19.964Z,101551.00
2023-04-05T18:24:48.456Z,101550.16
2023-04-05T18:27:17.256Z,101545.47
2023-04-05T18:29:46.697Z,101559.56
2023-04-05T18:32:17.036Z,101553.38
2023-04-05T18:34:45.622Z,101555.56
2023-04-05T18:37:14.130Z,101561.94
2023-04-05T18:39:42.581Z,101561.31
2023-04-05T18:42:11.295Z,101561.56
2023-04-05T18:44:39.759Z,101569.03
2023-04-05T18:47:08.267Z,101568.78
2023-04-05T18:49:38.164Z,101571.81
2023-04-05T18:52:06.651Z,101572.00
2023-04-05T18:54:35.387Z,101568.63
2023-04-05T18:57:04.769Z,101575.47
2023-04-05T18:59:33.292Z,101578.22
2023-04-05T19:02:01.854Z,101573.34
2023-04-05T19:04:30.621Z,101572.50
2023-04-05T19:07:00.486Z,101573.22
2023-04-05T19:09:29.145Z,101578.50
2023-04-05T19:11:57.661Z,101583.00
2023-04-05T19:14:26.456Z,101590.47
2023-04-05T19:16:55.044Z,101588.75
2023-04-05T19:19:23.552Z,101591.91
2023-04-05T19:21:52.082Z,101593.00
2023-04-05T19:24:21.963Z,101595.38
2023-04-05T19:26:50.913Z,101595.63
2023-04-05T19:29:19.643Z,101605.63
2023-04-05T19:31:48.212Z,101595.84
2023-04-05T19:34:16.784Z,101600.75
2023-04-05T19:36:45.295Z,101603.75
2023-04-05T19:39:13.794Z,101601.63
2023-04-05T19:41:44.423Z,101594.81
2023-04-05T19:44:13.204Z,101588.44
2023-04-05T19:46:42.716Z,101586.50
2023-04-05T19:49:17.746Z,101587.13
2023-04-05T19:51:47.089Z,101591.19
2023-04-05T19:54:16.119Z,101588.03
2023-04-05T19:56:46.730Z,101595.31
2023-04-05T19:59:31.055Z,101586.34
2023-04-05T20:02:00.508Z,101587.50
2023-04-05T20:04:34.363Z,101586.88
2023-04-05T20:07:03.901Z,101582.63
2023-04-05T20:09:34.122Z,101587.56
2023-04-05T20:12:05.699Z,101576.47
2023-04-05T20:14:41.894Z,101575.00
2023-04-05T20:17:12.298Z,101568.00
2023-04-05T20:19:41.874Z,101568.69
2023-04-05T20:22:11.326Z,101568.44
2023-04-05T20:24:41.443Z,101570.38
2023-04-05T20:27:15.029Z,101573.19
2023-04-05T20:29:43.810Z,101571.91
2023-04-05T20:32:12.352Z,101567.41
2023-04-05T20:34:43.738Z,101571.06
2023-04-05T20:37:13.450Z,101567.66
2023-04-05T20:39:41.985Z,101559.81
2023-04-05T20:42:11.854Z,101564.25
2023-04-05T20:44:41.086Z,101557.28
2023-04-05T20:47:09.575Z,101562.19
2023-04-05T20:49:38.083Z,101552.41
2023-04-05T20:52:07.920Z,101553.25
2023-04-05T20:54:36.837Z,101554.31
2023-04-05T20:57:05.394Z,101555.22
2023-04-05T20:59:35.404Z,101552.06
2023-04-05T21:02:03.974Z,101546.31
2023-04-05T21:04:32.813Z,101548.25
2023-04-05T21:07:01.616Z,101542.06
2023-04-05T21:09:30.177Z,101539.50
2023-04-05T21:11:59.019Z,101540.84
2023-04-05T21:14:28.053Z,101533.13
2023-04-05T21:16:57.906Z,101544.66
2023-04-05T21:19:26.421Z,101538.72
2023-04-05T21:21:54.936Z,101541.72
2023-04-05T21:24:23.432Z,101536.84
2023-04-05T21:26:52.015Z,101539.84
2023-04-05T21:29:20.567Z,101548.78
2023-04-05T21:31:49.151Z,101534.56
2023-04-05T21:34:19.087Z,101534.56
2023-04-05T21:36:47.567Z,101541.16
2023-04-05T21:39:16.058Z,101534.38
2023-04-05T21:41:44.559Z,101533.28
2023-04-05T21:44:13.105Z,101538.66
2023-04-05T21:46:41.606Z,101532.34
2023-04-05T21:49:10.218Z,101527.66
2023-04-05T21:51:40.090Z,101532.94
2023-04-05T21:54:08.587Z,101528.31
2023-04-05T21:56:37.743Z,101527.84
2023-04-05T21:59:06.519Z,101528.53
2023-04-05T22:01:35.338Z,101527.06
2023-04-05T22:04:03.830Z,101527.50
2023-04-05T22:06:32.309Z,101528.81
2023-04-05T22:09:02.331Z,101535.63
2023-04-05T22:11:30.937Z,101529.03
2023-04-05T22:13:59.717Z,101519.25
2023-04-05T22:16:28.242Z,101524.63
2023-04-05T22:18:56.847Z,101505.88
2023-04-05T22:21:25.827Z,101508.22
2023-04-05T22:23:54.337Z,101512.72
2023-04-05T22:26:24.229Z,101517.41
2023-04-05T22:28:52.734Z,101512.72
2023-04-05T22:31:21.406Z,101515.09
2023-04-05T22:33:49.943Z,101501.31
2023-04-05T22:36:18.496Z,101500.00
2023-04-05T22:38:47.051Z,101508.06
2023-04-05T22:41:15.772Z,101511.28
2023-04-05T22:43:45.708Z,101505.34
2023-04-05T22:46:14.272Z,101510.03
2023-04-05T22:48:42.975Z,101495.81
2023-04-05T22:51:11.538Z,101499.41
2023-04-05T22:53:43.221Z,101499.22
2023-04-05T22:56:11.706Z,101500.94
2023-04-05T22:58:40.211Z,101494.13
2023-04-05T23:01:10.080Z,101500.97
2023-04-05T23:03:38.628Z,101489.91
2023-04-05T23:06:07.436Z,101492.28
2023-04-05T23:08:36.132Z,101487.59
2023-04-05T23:11:04.834Z,101484.63
2023-04-05T23:13:33.321Z,101485.69
2023-04-05T23:16:01.937Z,101478.50
2023-04-05T23:18:31.854Z,101479.53
2023-04-05T23:21:00.416Z,101476.81
2023-04-05T23:23:28.942Z,101474.28
2023-04-05T23:25:57.623Z,101476.81
2023-04-05T23:28:26.264Z,101471.53
2023-04-05T23:30:54.740Z,101472.16
2023-04-05T23:33:23.260Z,101470.28
2023-04-05T23:35:53.129Z,101471.75
2023-04-05T23:38:21.629Z,101468.38
2023-04-05T23:40:50.110Z,101460.97
2023-04-05T23:43:18.581Z,101459.03
2023-04-05T23:45:47.116Z,101460.97
2023-04-05T23:48:15.626Z,101453.13
2023-04-05T23:50:44.249Z,101450.75
2023-04-05T23:53:14.110Z,101450.16
2023-04-05T23:55:42.592Z,101454.41
2023-04-05T23:58:11.334Z,101449.94
